createdAt,value
2018-06-18T00:00:44.625Z,8.30
2018-06-18T00:01:44.652Z,8.30
2018-06-18T00:02:44.669Z,8.60
2018-06-18T00:03:44.674Z,10.30
2018-06-18T00:04:44.818Z,10.20
2018-06-18T00:05:44.686Z,9.90
2018-06-18T00:06:44.697Z,9.40
2018-06-18T00:07:44.721Z,10.30
2018-06-18T00:08:44.738Z,10.90
2018-06-18T00:09:44.871Z,24.30
2018-06-18T00:10:44.735Z,19.90
2018-06-18T00:11:44.751Z,18.30
2018-06-18T00:12:44.783Z,14.70
2018-06-18T00:13:44.778Z,34.40
2018-06-18T00:14:44.909Z,14.10
2018-06-18T00:15:44.825Z,12.70
2018-06-18T00:16:44.833Z,12.00
2018-06-18T00:17:44.819Z,12.80
2018-06-18T00:18:44.861Z,13.30
2018-06-18T00:19:44.969Z,13.20
2018-06-18T00:20:44.864Z,13.30
2018-06-18T00:21:44.867Z,13.40
2018-06-18T00:22:44.887Z,13.90
2018-06-18T00:23:44.892Z,13.60
2018-06-18T00:24:45.003Z,14.10
2018-06-18T00:25:44.916Z,14.80
2018-06-18T00:26:44.933Z,15.00
2018-06-18T00:27:44.943Z,15.00
2018-06-18T00:28:44.978Z,14.70
2018-06-18T00:29:45.066Z,15.30
2018-06-18T00:30:44.976Z,15.70
2018-06-18T00:31:44.994Z,14.60
2018-06-18T00:32:45.002Z,15.30
2018-06-18T00:33:45.006Z,15.60
2018-06-18T00:34:45.173Z,15.60
2018-06-18T00:35:45.035Z,16.70
2018-06-18T00:36:45.057Z,16.40
2018-06-18T00:37:45.083Z,16.30
2018-06-18T00:38:45.087Z,16.40
2018-06-18T00:39:45.207Z,16.20
2018-06-18T00:40:45.097Z,16.30
2018-06-18T00:41:45.123Z,16.20
2018-06-18T00:42:45.132Z,16.10
2018-06-18T00:43:45.130Z,16.80
2018-06-18T00:44:45.295Z,17.30
2018-06-18T00:45:45.179Z,18.60
2018-06-18T00:46:45.198Z,18.90
2018-06-18T00:47:45.174Z,18.60
2018-06-18T00:48:45.190Z,18.60
2018-06-18T00:49:45.351Z,18.10
2018-06-18T00:50:45.216Z,19.00
2018-06-18T00:51:45.233Z,19.40
2018-06-18T00:52:45.241Z,18.70
2018-06-18T00:53:45.249Z,19.20
2018-06-18T00:54:45.440Z,18.70
2018-06-18T00:55:45.276Z,19.10
2018-06-18T00:56:45.284Z,18.50
2018-06-18T00:57:45.297Z,18.80
2018-06-18T00:58:45.337Z,19.30
2018-06-18T00:59:45.422Z,19.40
2018-06-18T01:00:45.365Z,19.00
2018-06-18T01:01:45.346Z,19.40
2018-06-18T01:02:45.385Z,18.70
2018-06-18T01:03:45.365Z,18.50
2018-06-18T01:04:45.480Z,18.40
2018-06-18T01:05:45.424Z,18.40
2018-06-18T01:06:45.425Z,18.50
2018-06-18T01:07:45.431Z,18.50
2018-06-18T01:08:45.437Z,18.50
2018-06-18T01:09:45.441Z,18.40
2018-06-18T01:10:45.606Z,17.40
2018-06-18T01:11:45.477Z,18.30
2018-06-18T01:12:45.475Z,18.20
2018-06-18T01:13:45.495Z,18.40
2018-06-18T01:14:45.495Z,17.50
2018-06-18T01:15:45.695Z,18.30
2018-06-18T01:16:45.530Z,17.80
2018-06-18T01:17:45.564Z,17.60
2018-06-18T01:18:45.551Z,18.30
2018-06-18T01:19:45.571Z,19.00
2018-06-18T01:20:45.697Z,19.50
2018-06-18T01:21:45.607Z,18.40
2018-06-18T01:22:45.593Z,19.10
2018-06-18T01:23:45.631Z,18.30
2018-06-18T01:24:45.623Z,17.90
2018-06-18T01:25:45.754Z,18.00
2018-06-18T01:26:45.649Z,18.80
2018-06-18T01:27:45.656Z,18.40
2018-06-18T01:28:45.692Z,19.20
2018-06-18T01:29:45.677Z,17.80
2018-06-18T01:30:45.850Z,18.20
2018-06-18T01:31:45.699Z,18.10
2018-06-18T01:32:45.740Z,18.30
2018-06-18T01:33:45.722Z,18.30
2018-06-18T01:34:45.737Z,17.70
2018-06-18T01:35:45.852Z,18.40
2018-06-18T01:36:45.762Z,18.10
2018-06-18T01:37:45.769Z,18.30
2018-06-18T01:38:45.807Z,17.70
2018-06-18T01:39:45.797Z,18.60
2018-06-18T01:40:45.984Z,18.60
2018-06-18T01:41:45.850Z,17.80
2018-06-18T01:42:45.831Z,17.60
2018-06-18T01:43:45.868Z,17.90
2018-06-18T01:44:45.872Z,17.90
2018-06-18T01:45:45.979Z,17.70
2018-06-18T01:46:45.906Z,17.70
2018-06-18T01:47:45.922Z,17.40
2018-06-18T01:48:45.932Z,18.10
2018-06-18T01:49:45.911Z,18.30
2018-06-18T01:50:46.068Z,18.20
2018-06-18T01:51:45.963Z,18.40
2018-06-18T01:52:45.949Z,18.00
2018-06-18T01:53:45.986Z,18.00
2018-06-18T01:54:45.996Z,18.80
2018-06-18T01:55:46.133Z,18.50
2018-06-18T01:56:46.023Z,18.80
2018-06-18T01:57:46.033Z,18.20
2018-06-18T01:58:46.051Z,18.00
2018-06-18T01:59:46.027Z,17.60
2018-06-18T02:00:46.153Z,17.50
2018-06-18T02:01:46.058Z,17.70
2018-06-18T02:02:46.068Z,17.50
2018-06-18T02:03:46.104Z,17.80
2018-06-18T02:04:46.092Z,18.90
2018-06-18T02:05:46.227Z,16.60
2018-06-18T02:06:46.129Z,16.80
2018-06-18T02:07:46.160Z,17.50
2018-06-18T02:08:46.138Z,17.20
2018-06-18T02:09:46.176Z,17.10
2018-06-18T02:10:46.261Z,17.80
2018-06-18T02:11:46.169Z,17.80
2018-06-18T02:12:46.184Z,16.90
2018-06-18T02:13:46.196Z,15.90
2018-06-18T02:14:46.239Z,15.50
2018-06-18T02:15:46.320Z,15.30
2018-06-18T02:16:46.265Z,15.40
2018-06-18T02:17:46.260Z,14.90
2018-06-18T02:18:46.259Z,15.00
2018-06-18T02:19:46.296Z,14.20
2018-06-18T02:20:46.406Z,14.80
2018-06-18T02:21:46.323Z,23.40
2018-06-18T02:22:46.302Z,14.10
2018-06-18T02:23:46.349Z,15.80
2018-06-18T02:24:46.329Z,15.30
2018-06-18T02:25:46.440Z,11.90
2018-06-18T02:26:46.357Z,11.30
2018-06-18T02:27:46.394Z,10.20
2018-06-18T02:28:46.394Z,9.00
2018-06-18T02:29:46.403Z,9.30
2018-06-18T02:30:46.432Z,12.00
2018-06-18T02:31:46.519Z,12.10
2018-06-18T02:32:46.433Z,12.90
2018-06-18T02:33:46.463Z,12.50
2018-06-18T02:34:46.478Z,13.30
2018-06-18T02:35:46.475Z,13.60
2018-06-18T02:36:46.623Z,13.10
2018-06-18T02:37:46.498Z,13.10
2018-06-18T02:38:46.521Z,9.70
2018-06-18T02:39:46.507Z,13.00
2018-06-18T02:40:46.546Z,11.50
2018-06-18T02:41:46.687Z,13.10
2018-06-18T02:42:46.550Z,13.20
2018-06-18T02:43:46.573Z,13.00
2018-06-18T02:44:46.568Z,12.00
2018-06-18T02:45:46.579Z,10.10
2018-06-18T02:46:46.771Z,9.50
2018-06-18T02:47:46.616Z,8.90
2018-06-18T02:48:46.617Z,9.30
2018-06-18T02:49:46.655Z,9.90
2018-06-18T02:50:46.662Z,11.00
2018-06-18T02:51:46.799Z,10.50
2018-06-18T02:52:46.687Z,11.80
2018-06-18T02:53:46.673Z,12.30
2018-06-18T02:54:46.684Z,13.40
2018-06-18T02:55:46.695Z,12.10
2018-06-18T02:56:46.821Z,14.30
2018-06-18T02:57:46.739Z,16.80
2018-06-18T02:58:46.731Z,17.30
2018-06-18T02:59:46.748Z,17.10
2018-06-18T03:00:46.759Z,16.90
2018-06-18T03:01:46.872Z,18.30
2018-06-18T03:02:46.789Z,17.50
2018-06-18T03:03:46.793Z,21.60
2018-06-18T03:04:46.831Z,18.40
2018-06-18T03:05:46.815Z,17.30
2018-06-18T03:06:46.988Z,20.00
2018-06-18T03:07:46.867Z,23.40
2018-06-18T03:08:46.853Z,22.20
2018-06-18T03:09:46.870Z,21.40
2018-06-18T03:10:46.883Z,18.50
2018-06-18T03:11:47.062Z,17.80
2018-06-18T03:12:46.899Z,21.20
2018-06-18T03:13:46.938Z,22.00
2018-06-18T03:14:46.924Z,25.30
2018-06-18T03:15:46.947Z,19.90
2018-06-18T03:16:47.064Z,18.20
2018-06-18T03:17:46.985Z,18.20
2018-06-18T03:18:46.998Z,17.40
2018-06-18T03:19:46.989Z,18.10
2018-06-18T03:20:47.020Z,17.40
2018-06-18T03:21:47.108Z,17.90
2018-06-18T03:22:47.033Z,18.20
2018-06-18T03:23:47.053Z,18.90
2018-06-18T03:24:47.054Z,18.20
2018-06-18T03:25:47.079Z,19.10
2018-06-18T03:26:47.228Z,17.90
2018-06-18T03:27:47.122Z,19.50
2018-06-18T03:28:47.113Z,18.90
2018-06-18T03:29:47.105Z,19.50
2018-06-18T03:30:47.113Z,20.00
2018-06-18T03:31:47.249Z,19.40
2018-06-18T03:32:47.163Z,20.10
2018-06-18T03:33:47.169Z,21.70
2018-06-18T03:34:47.156Z,22.10
2018-06-18T03:35:47.174Z,24.50
2018-06-18T03:36:47.282Z,22.50
2018-06-18T03:37:47.221Z,23.90
2018-06-18T03:38:47.232Z,23.40
2018-06-18T03:39:47.236Z,26.30
2018-06-18T03:40:47.239Z,25.30
2018-06-18T03:41:47.414Z,28.10
2018-06-18T03:42:47.250Z,29.20
2018-06-18T03:43:47.270Z,27.60
2018-06-18T03:44:47.286Z,28.30
2018-06-18T03:45:47.287Z,30.20
2018-06-18T03:46:47.297Z,31.60
2018-06-18T03:47:47.423Z,31.20
2018-06-18T03:48:47.334Z,33.00
2018-06-18T03:49:47.333Z,35.70
2018-06-18T03:50:47.360Z,34.30
2018-06-18T03:51:47.357Z,33.80
2018-06-18T03:52:47.379Z,32.20
2018-06-18T03:53:47.477Z,34.10
2018-06-18T03:54:47.400Z,37.20
2018-06-18T03:55:47.436Z,34.10
2018-06-18T03:56:47.414Z,32.10
2018-06-18T03:57:47.428Z,30.80
2018-06-18T03:58:47.568Z,30.60
2018-06-18T03:59:47.479Z,31.40
2018-06-18T04:00:47.494Z,31.30
2018-06-18T04:01:47.502Z,31.70
2018-06-18T04:02:47.499Z,31.40
2018-06-18T04:03:47.629Z,30.30
2018-06-18T04:04:47.535Z,30.10
2018-06-18T04:05:47.520Z,32.60
2018-06-18T04:06:47.537Z,30.50
2018-06-18T04:07:47.570Z,26.50
2018-06-18T04:08:47.731Z,24.40
2018-06-18T04:09:47.571Z,27.30
2018-06-18T04:10:47.612Z,23.70
2018-06-18T04:11:47.625Z,21.20
2018-06-18T04:12:47.607Z,24.40
2018-06-18T04:13:47.745Z,21.10
2018-06-18T04:14:47.626Z,20.80
2018-06-18T04:15:47.655Z,20.30
2018-06-18T04:16:47.674Z,19.50
2018-06-18T04:17:47.669Z,20.80
2018-06-18T04:18:47.781Z,21.20
2018-06-18T04:19:47.690Z,20.40
2018-06-18T04:20:47.691Z,19.40
2018-06-18T04:21:47.739Z,20.30
2018-06-18T04:22:47.752Z,18.60
2018-06-18T04:23:47.911Z,17.10
2018-06-18T04:24:47.839Z,18.90
2018-06-18T04:25:47.758Z,18.50
2018-06-18T04:26:47.795Z,18.20
2018-06-18T04:27:47.788Z,19.10
2018-06-18T04:28:47.893Z,17.60
2018-06-18T04:29:47.799Z,21.00
2018-06-18T04:30:47.839Z,20.10
2018-06-18T04:31:47.854Z,18.20
2018-06-18T04:32:47.839Z,17.90
2018-06-18T04:33:47.976Z,17.50
2018-06-18T04:34:47.876Z,15.60
2018-06-18T04:35:47.883Z,15.00
2018-06-18T04:36:47.882Z,16.10
2018-06-18T04:37:47.902Z,16.40
2018-06-18T04:38:48.083Z,17.40
2018-06-18T04:39:47.923Z,20.70
2018-06-18T04:40:47.930Z,16.40
2018-06-18T04:41:47.945Z,13.60
2018-06-18T04:42:47.984Z,13.90
2018-06-18T04:43:48.071Z,10.10
2018-06-18T04:44:48.049Z,10.40
2018-06-18T04:45:47.986Z,11.60
2018-06-18T04:46:48.008Z,10.00
2018-06-18T04:47:48.042Z,9.90
2018-06-18T04:48:48.136Z,9.90
2018-06-18T04:49:48.062Z,8.90
2018-06-18T04:50:48.050Z,8.70
2018-06-18T04:51:48.062Z,9.20
2018-06-18T04:52:48.098Z,9.60
2018-06-18T04:53:48.228Z,9.20
2018-06-18T04:54:48.094Z,9.90
2018-06-18T04:55:48.107Z,8.10
2018-06-18T04:56:48.118Z,7.10
2018-06-18T04:57:48.133Z,7.30
2018-06-18T04:58:48.292Z,8.10
2018-06-18T04:59:48.182Z,8.50
2018-06-18T05:00:48.164Z,7.70
2018-06-18T05:01:48.188Z,10.00
2018-06-18T05:02:48.216Z,9.20
2018-06-18T05:03:48.305Z,8.50
2018-06-18T05:04:48.220Z,8.70
2018-06-18T05:05:48.222Z,11.80
2018-06-18T05:06:48.241Z,9.90
2018-06-18T05:07:48.249Z,8.90
2018-06-18T05:08:48.361Z,10.40
2018-06-18T05:09:48.270Z,9.40
2018-06-18T05:10:48.286Z,9.70
2018-06-18T05:11:48.322Z,10.70
2018-06-18T05:12:48.339Z,12.40
2018-06-18T05:13:48.482Z,10.10
2018-06-18T05:14:48.358Z,10.60
2018-06-18T05:15:48.340Z,10.00
2018-06-18T05:16:48.363Z,10.20
2018-06-18T05:17:48.366Z,11.20
2018-06-18T05:18:48.407Z,9.50
2018-06-18T05:19:48.545Z,10.30
2018-06-18T05:20:48.401Z,10.00
2018-06-18T05:21:48.409Z,9.30
2018-06-18T05:22:48.450Z,14.50
2018-06-18T05:23:48.460Z,12.20
2018-06-18T05:24:48.548Z,12.60
2018-06-18T05:25:48.454Z,8.80
2018-06-18T05:26:48.467Z,9.80
2018-06-18T05:27:48.481Z,7.10
2018-06-18T05:28:48.520Z,9.20
2018-06-18T05:29:48.684Z,8.90
2018-06-18T05:30:48.540Z,9.60
2018-06-18T05:31:48.539Z,10.30
2018-06-18T05:32:48.550Z,8.90
2018-06-18T05:33:48.563Z,9.80
2018-06-18T05:34:48.664Z,8.40
2018-06-18T05:35:48.577Z,8.30
2018-06-18T05:36:48.584Z,7.40
2018-06-18T05:37:48.600Z,9.70
2018-06-18T05:38:48.608Z,9.10
2018-06-18T05:39:48.796Z,15.40
2018-06-18T05:40:48.669Z,8.30
2018-06-18T05:41:48.659Z,8.00
2018-06-18T05:42:48.662Z,7.50
2018-06-18T05:43:48.672Z,7.50
2018-06-18T05:44:48.785Z,7.80
2018-06-18T05:45:48.686Z,8.10
2018-06-18T05:46:48.703Z,7.70
2018-06-18T05:47:48.725Z,7.80
2018-06-18T05:48:48.750Z,7.70
2018-06-18T05:49:48.867Z,7.80
2018-06-18T05:50:48.779Z,8.10
2018-06-18T05:51:48.768Z,8.30
2018-06-18T05:52:48.786Z,7.90
2018-06-18T05:53:48.795Z,8.40
2018-06-18T05:54:48.975Z,7.70
2018-06-18T05:55:48.835Z,9.40
2018-06-18T05:56:48.829Z,9.20
2018-06-18T05:57:48.829Z,8.60
2018-06-18T05:58:48.843Z,8.10
2018-06-18T05:59:49.003Z,8.50
2018-06-18T06:00:48.880Z,8.50
2018-06-18T06:01:48.897Z,8.20
2018-06-18T06:02:48.904Z,8.10
2018-06-18T06:03:48.903Z,8.00
2018-06-18T06:04:49.024Z,8.30
2018-06-18T06:05:48.952Z,8.10
2018-06-18T06:06:48.940Z,8.50
2018-06-18T06:07:48.947Z,8.30
2018-06-18T06:08:48.961Z,8.50
2018-06-18T06:09:49.131Z,8.10
2018-06-18T06:10:48.994Z,8.40
2018-06-18T06:11:48.994Z,8.50
2018-06-18T06:12:49.047Z,10.30
2018-06-18T06:13:49.047Z,9.50
2018-06-18T06:14:49.141Z,9.00
2018-06-18T06:15:49.055Z,9.60
2018-06-18T06:16:49.113Z,9.30
2018-06-18T06:17:49.094Z,8.40
2018-06-18T06:18:49.077Z,8.00
2018-06-18T06:19:49.263Z,7.70
2018-06-18T06:20:49.101Z,7.10
2018-06-18T06:21:49.114Z,6.90
2018-06-18T06:22:49.126Z,7.90
2018-06-18T06:23:49.162Z,9.00
2018-06-18T06:24:49.297Z,17.40
2018-06-18T06:25:49.183Z,33.00
2018-06-18T06:26:49.173Z,10.80
2018-06-18T06:27:49.214Z,10.80
2018-06-18T06:28:49.249Z,9.90
2018-06-18T06:29:49.305Z,8.20
2018-06-18T06:30:49.249Z,7.40
2018-06-18T06:31:49.254Z,7.60
2018-06-18T06:32:49.269Z,7.60
2018-06-18T06:33:49.279Z,7.30
2018-06-18T06:34:49.365Z,7.30
2018-06-18T06:35:49.283Z,8.00
2018-06-18T06:36:49.287Z,13.20
2018-06-18T06:37:49.312Z,8.00
2018-06-18T06:38:49.313Z,23.70
2018-06-18T06:39:49.322Z,13.40
2018-06-18T06:40:49.433Z,7.20
2018-06-18T06:41:49.345Z,7.10
2018-06-18T06:42:49.390Z,7.40
2018-06-18T06:43:49.374Z,7.90
2018-06-18T06:44:49.386Z,8.10
2018-06-18T06:45:49.576Z,8.30
2018-06-18T06:46:49.404Z,8.30
2018-06-18T06:47:49.442Z,7.80
2018-06-18T06:48:49.436Z,10.90
2018-06-18T06:49:49.435Z,10.00
2018-06-18T06:50:49.556Z,9.00
2018-06-18T06:51:49.470Z,8.90
2018-06-18T06:52:49.482Z,9.10
2018-06-18T06:53:49.521Z,8.50
2018-06-18T06:54:49.530Z,9.60
2018-06-18T06:55:49.657Z,8.90
2018-06-18T06:56:49.548Z,10.00
2018-06-18T06:57:49.537Z,10.90
2018-06-18T06:58:49.550Z,9.30
2018-06-18T06:59:49.588Z,9.20
2018-06-18T07:00:49.702Z,8.20
2018-06-18T07:01:49.593Z,7.30
2018-06-18T07:02:49.594Z,7.10
2018-06-18T07:03:49.618Z,6.60
2018-06-18T07:04:49.619Z,9.00
2018-06-18T07:05:49.810Z,11.60
2018-06-18T07:06:49.665Z,10.30
2018-06-18T07:07:49.656Z,7.00
2018-06-18T07:08:49.691Z,6.60
2018-06-18T07:09:49.675Z,7.50
2018-06-18T07:10:49.839Z,7.60
2018-06-18T07:11:49.717Z,7.80
2018-06-18T07:12:49.743Z,7.80
2018-06-18T07:13:49.725Z,7.50
2018-06-18T07:14:49.767Z,7.10
2018-06-18T07:15:49.847Z,7.40
2018-06-18T07:16:49.784Z,6.80
2018-06-18T07:17:49.795Z,6.70
2018-06-18T07:18:49.785Z,8.40
2018-06-18T07:19:49.802Z,9.60
2018-06-18T07:20:49.910Z,7.90
2018-06-18T07:21:49.846Z,7.70
2018-06-18T07:22:49.854Z,7.30
2018-06-18T07:23:49.866Z,7.00
2018-06-18T07:24:49.881Z,6.20
2018-06-18T07:25:49.964Z,5.90
2018-06-18T07:26:49.881Z,6.60
2018-06-18T07:27:49.916Z,6.40
2018-06-18T07:28:49.903Z,5.80
2018-06-18T07:29:49.938Z,6.10
2018-06-18T07:30:50.134Z,5.20
2018-06-18T07:31:49.968Z,7.00
2018-06-18T07:32:49.954Z,8.10
2018-06-18T07:33:49.967Z,9.20
2018-06-18T07:34:50.001Z,8.30
2018-06-18T07:35:50.084Z,8.30
2018-06-18T07:36:49.997Z,8.70
2018-06-18T07:37:50.006Z,8.20
2018-06-18T07:38:50.023Z,8.40
2018-06-18T07:39:50.043Z,8.20
2018-06-18T07:40:50.220Z,7.90
2018-06-18T07:41:50.061Z,7.80
2018-06-18T07:42:50.065Z,8.50
2018-06-18T07:43:50.123Z,8.00
2018-06-18T07:44:50.089Z,8.70
2018-06-18T07:45:50.218Z,8.50
2018-06-18T07:46:50.148Z,8.90
2018-06-18T07:47:50.151Z,8.70
2018-06-18T07:48:50.138Z,8.60
2018-06-18T07:49:50.149Z,8.50
2018-06-18T07:50:50.341Z,8.70
2018-06-18T07:51:50.384Z,9.40
2018-06-18T07:52:50.184Z,8.50
2018-06-18T07:53:50.209Z,8.40
2018-06-18T07:54:50.210Z,9.10
2018-06-18T07:55:50.371Z,8.70
2018-06-18T07:56:50.234Z,9.10
2018-06-18T07:57:50.246Z,9.20
2018-06-18T07:58:50.260Z,8.70
2018-06-18T07:59:50.267Z,8.90
2018-06-18T08:00:50.297Z,8.80
2018-06-18T08:01:50.424Z,9.10
2018-06-18T08:02:50.316Z,8.70
2018-06-18T08:03:50.349Z,9.10
2018-06-18T08:04:50.332Z,8.70
2018-06-18T08:05:50.344Z,8.60
2018-06-18T08:06:50.483Z,9.20
2018-06-18T08:07:50.376Z,9.60
2018-06-18T08:08:50.389Z,9.50
2018-06-18T08:09:50.437Z,10.40
2018-06-18T08:10:50.402Z,9.30
2018-06-18T08:11:50.562Z,9.00
2018-06-18T08:12:50.452Z,9.00
2018-06-18T08:13:50.443Z,8.40
2018-06-18T08:14:50.451Z,8.70
2018-06-18T08:15:50.460Z,9.60
2018-06-18T08:16:50.576Z,9.70
2018-06-18T08:17:50.488Z,9.30
2018-06-18T08:18:50.497Z,9.80
2018-06-18T08:19:50.533Z,9.90
2018-06-18T08:20:50.521Z,8.90
2018-06-18T08:21:50.631Z,9.60
2018-06-18T08:22:50.556Z,9.30
2018-06-18T08:23:50.608Z,9.50
2018-06-18T08:24:50.567Z,9.60
2018-06-18T08:25:50.579Z,10.00
2018-06-18T08:26:50.771Z,10.30
2018-06-18T08:27:50.635Z,9.90
2018-06-18T08:28:50.648Z,10.70
2018-06-18T08:29:50.640Z,10.90
2018-06-18T08:30:50.646Z,10.90
2018-06-18T08:31:50.754Z,10.90
2018-06-18T08:32:50.681Z,11.20
2018-06-18T08:33:50.678Z,10.90
2018-06-18T08:34:50.732Z,11.60
2018-06-18T08:35:50.701Z,11.40
2018-06-18T08:36:50.855Z,11.20
2018-06-18T08:37:50.752Z,11.90
2018-06-18T08:38:50.760Z,11.00
2018-06-18T08:39:50.772Z,11.40
2018-06-18T08:40:50.760Z,11.80
2018-06-18T08:41:50.869Z,12.60
2018-06-18T08:42:50.810Z,11.90
2018-06-18T08:43:50.822Z,11.80
2018-06-18T08:44:50.829Z,12.10
2018-06-18T08:45:50.816Z,12.30
2018-06-18T08:46:50.975Z,11.80
2018-06-18T08:47:50.857Z,11.90
2018-06-18T08:48:50.847Z,11.40
2018-06-18T08:49:50.893Z,11.70
2018-06-18T08:50:50.902Z,11.80
2018-06-18T08:51:51.069Z,11.20
2018-06-18T08:52:50.900Z,11.00
2018-06-18T08:53:50.943Z,12.00
2018-06-18T08:54:50.928Z,11.90
2018-06-18T08:55:50.963Z,11.40
2018-06-18T08:56:51.098Z,11.10
2018-06-18T08:57:50.979Z,11.60
2018-06-18T08:58:50.997Z,10.90
2018-06-18T08:59:50.982Z,11.20
2018-06-18T09:00:51.007Z,10.90
2018-06-18T09:01:51.157Z,10.90
2018-06-18T09:02:51.016Z,10.90
2018-06-18T09:03:51.036Z,11.60
2018-06-18T09:04:51.042Z,11.10
2018-06-18T09:05:51.081Z,11.50
2018-06-18T09:06:51.167Z,11.70
2018-06-18T09:07:51.103Z,10.90
2018-06-18T09:08:51.092Z,10.40
2018-06-18T09:09:51.126Z,10.20
2018-06-18T09:10:51.109Z,10.40
2018-06-18T09:11:51.301Z,10.70
2018-06-18T09:12:51.144Z,11.20
2018-06-18T09:13:51.161Z,10.70
2018-06-18T09:14:51.162Z,10.50
2018-06-18T09:15:51.175Z,10.10
2018-06-18T09:16:51.312Z,10.30
2018-06-18T09:17:51.220Z,10.10
2018-06-18T09:18:51.212Z,10.10
2018-06-18T09:19:51.249Z,9.90
2018-06-18T09:20:51.234Z,9.80
2018-06-18T09:21:51.427Z,9.70
2018-06-18T09:22:51.264Z,9.40
2018-06-18T09:23:51.281Z,9.70
2018-06-18T09:24:51.305Z,9.50
2018-06-18T09:25:51.304Z,9.60
2018-06-18T09:26:51.306Z,9.80
2018-06-18T09:27:51.440Z,9.80
2018-06-18T09:28:51.352Z,9.90
2018-06-18T09:29:51.357Z,9.50
2018-06-18T09:30:51.351Z,9.60
2018-06-18T09:31:51.398Z,9.30
2018-06-18T09:32:51.503Z,10.00
2018-06-18T09:33:51.382Z,10.00
2018-06-18T09:34:51.423Z,10.00
2018-06-18T09:35:51.438Z,10.50
2018-06-18T09:36:51.425Z,9.40
2018-06-18T09:37:51.599Z,9.70
2018-06-18T09:38:51.472Z,9.90
2018-06-18T09:39:51.467Z,12.40
2018-06-18T09:40:51.497Z,12.30
2018-06-18T09:41:51.494Z,12.60
2018-06-18T09:42:51.625Z,13.30
2018-06-18T09:43:51.523Z,14.10
2018-06-18T09:44:51.518Z,15.00
2018-06-18T09:45:51.535Z,15.10
2018-06-18T09:46:51.545Z,16.20
2018-06-18T09:47:51.731Z,15.40
2018-06-18T09:48:51.591Z,13.50
2018-06-18T09:49:51.584Z,14.20
2018-06-18T09:50:51.597Z,13.70
2018-06-18T09:51:51.609Z,13.80
2018-06-18T09:52:51.779Z,14.70
2018-06-18T09:53:51.626Z,13.70
2018-06-18T09:54:51.667Z,14.90
2018-06-18T09:55:51.656Z,13.70
2018-06-18T09:56:51.666Z,13.60
2018-06-18T09:57:51.858Z,13.20
2018-06-18T09:58:51.700Z,13.10
2018-06-18T09:59:51.707Z,12.70
2018-06-18T10:00:51.714Z,12.80
2018-06-18T10:01:51.740Z,13.10
2018-06-18T10:02:51.884Z,13.60
2018-06-18T10:03:51.777Z,13.90
2018-06-18T10:04:51.762Z,13.40
2018-06-18T10:05:51.778Z,13.20
2018-06-18T10:06:51.810Z,13.70
2018-06-18T10:07:51.947Z,13.70
2018-06-18T10:08:51.850Z,13.90
2018-06-18T10:09:51.852Z,13.60
2018-06-18T10:10:51.858Z,13.60
2018-06-18T10:11:51.847Z,13.60
2018-06-18T10:12:51.957Z,14.80
2018-06-18T10:13:51.887Z,14.50
2018-06-18T10:14:51.882Z,14.90
2018-06-18T10:15:51.927Z,14.70
2018-06-18T10:16:51.909Z,14.60
2018-06-18T10:17:52.094Z,14.00
2018-06-18T10:18:51.930Z,14.60
2018-06-18T10:19:51.947Z,14.20
2018-06-18T10:20:51.969Z,13.80
2018-06-18T10:21:51.970Z,13.10
2018-06-18T10:22:52.157Z,13.70
2018-06-18T10:23:52.000Z,13.70
2018-06-18T10:24:52.037Z,13.50
2018-06-18T10:25:52.031Z,12.60
2018-06-18T10:26:52.030Z,12.00
2018-06-18T10:27:52.144Z,9.10
2018-06-18T10:28:52.079Z,9.80
2018-06-18T10:29:52.068Z,11.00
2018-06-18T10:30:52.111Z,10.50
2018-06-18T10:31:52.102Z,10.10
2018-06-18T10:32:52.201Z,9.80
2018-06-18T10:33:52.142Z,9.80
2018-06-18T10:34:52.141Z,9.70
2018-06-18T10:35:52.140Z,9.30
2018-06-18T10:36:52.179Z,9.70
2018-06-18T10:37:52.295Z,9.00
2018-06-18T10:38:52.207Z,8.80
2018-06-18T10:39:52.190Z,9.10
2018-06-18T10:40:52.202Z,8.40
2018-06-18T10:41:52.220Z,8.90
2018-06-18T10:42:52.380Z,10.00
2018-06-18T10:43:52.239Z,7.30
2018-06-18T10:44:52.277Z,6.50
2018-06-18T10:45:52.264Z,6.50
2018-06-18T10:46:52.292Z,7.30
2018-06-18T10:47:52.391Z,6.40
2018-06-18T10:48:52.345Z,5.10
2018-06-18T10:49:52.325Z,6.30
2018-06-18T10:50:52.357Z,6.00
2018-06-18T10:51:52.344Z,5.00
2018-06-18T10:52:52.454Z,5.50
2018-06-18T10:53:52.378Z,5.00
2018-06-18T10:54:52.382Z,5.40
2018-06-18T10:55:52.456Z,6.40
2018-06-18T10:56:52.430Z,6.20
2018-06-18T10:57:52.595Z,6.60
2018-06-18T10:58:52.432Z,5.60
2018-06-18T10:59:52.470Z,4.70
2018-06-18T11:00:52.486Z,4.70
2018-06-18T11:01:52.478Z,4.40
2018-06-18T11:02:52.655Z,4.20
2018-06-18T11:03:52.597Z,4.60
2018-06-18T11:04:52.502Z,5.20
2018-06-18T11:05:52.520Z,5.70
2018-06-18T11:06:52.567Z,5.10
2018-06-18T11:07:52.646Z,5.40
2018-06-18T11:08:52.589Z,6.00
2018-06-18T11:09:52.573Z,5.70
2018-06-18T11:10:52.583Z,4.20
2018-06-18T11:11:52.606Z,4.20
2018-06-18T11:12:52.735Z,4.00
2018-06-18T11:13:52.646Z,3.20
2018-06-18T11:14:52.636Z,2.90
2018-06-18T11:15:52.698Z,3.50
2018-06-18T11:16:52.884Z,2.90
2018-06-18T11:17:52.786Z,2.50
2018-06-18T11:18:52.684Z,3.00
2018-06-18T11:19:52.724Z,3.80
2018-06-18T11:20:52.716Z,2.50
2018-06-18T11:21:52.742Z,2.30
2018-06-18T11:22:52.916Z,2.20
2018-06-18T11:23:52.762Z,2.30
2018-06-18T11:24:52.772Z,2.10
2018-06-18T11:25:52.798Z,2.70
2018-06-18T11:26:52.846Z,2.80
2018-06-18T11:27:52.976Z,3.70
2018-06-18T11:28:52.807Z,4.30
2018-06-18T11:29:52.853Z,4.10
2018-06-18T11:30:52.845Z,3.30
2018-06-18T11:31:52.862Z,3.60
2018-06-18T11:32:53.015Z,3.70
2018-06-18T11:33:52.907Z,3.40
2018-06-18T11:34:52.971Z,3.20
2018-06-18T11:35:52.901Z,3.40
2018-06-18T11:36:52.942Z,2.80
2018-06-18T11:37:53.110Z,2.70
2018-06-18T11:38:52.944Z,3.70
2018-06-18T11:39:52.985Z,3.30
2018-06-18T11:40:52.969Z,2.60
2018-06-18T11:41:53.109Z,2.60
2018-06-18T11:42:53.128Z,3.00
2018-06-18T11:43:53.045Z,2.70
2018-06-18T11:44:53.032Z,2.90
2018-06-18T11:45:53.125Z,3.30
2018-06-18T11:46:53.056Z,3.50
2018-06-18T11:47:53.239Z,3.10
2018-06-18T11:48:53.105Z,4.00
2018-06-18T11:49:53.118Z,4.50
2018-06-18T11:50:53.145Z,4.90
2018-06-18T11:51:53.127Z,4.50
2018-06-18T11:52:53.314Z,4.30
2018-06-18T11:53:53.151Z,3.90
2018-06-18T11:54:53.165Z,4.10
2018-06-18T11:55:53.251Z,3.70
2018-06-18T11:56:53.195Z,3.60
2018-06-18T11:57:53.230Z,3.90
2018-06-18T11:58:53.369Z,3.60
2018-06-18T11:59:53.253Z,4.40
2018-06-18T12:00:53.249Z,3.90
2018-06-18T12:01:53.312Z,4.10
2018-06-18T12:02:53.282Z,4.70
2018-06-18T12:03:53.451Z,5.30
2018-06-18T12:04:53.321Z,8.40
2018-06-18T12:05:53.344Z,6.80
2018-06-18T12:06:53.336Z,6.20
2018-06-18T12:07:53.352Z,5.90
2018-06-18T12:08:53.534Z,5.60
2018-06-18T12:09:53.421Z,5.80
2018-06-18T12:10:53.417Z,6.00
2018-06-18T12:11:53.402Z,5.40
2018-06-18T12:12:53.425Z,5.40
2018-06-18T12:13:53.532Z,5.70
2018-06-18T12:14:53.454Z,5.00
2018-06-18T12:15:53.470Z,5.10
2018-06-18T12:16:53.478Z,5.50
2018-06-18T12:17:53.496Z,5.40
2018-06-18T12:18:53.632Z,4.80
2018-06-18T12:19:53.548Z,5.00
2018-06-18T12:20:53.529Z,5.70
2018-06-18T12:21:53.562Z,5.10
2018-06-18T12:22:53.585Z,5.50
2018-06-18T12:23:53.737Z,5.00
2018-06-18T12:24:53.611Z,6.80
2018-06-18T12:25:53.636Z,5.30
2018-06-18T12:26:53.618Z,5.10
2018-06-18T12:27:53.630Z,6.00
2018-06-18T12:28:53.747Z,5.50
2018-06-18T12:29:53.686Z,4.50
2018-06-18T12:30:53.673Z,5.30
2018-06-18T12:31:53.700Z,5.70
2018-06-18T12:32:53.699Z,5.10
2018-06-18T12:33:53.877Z,4.80
2018-06-18T12:34:53.734Z,5.00
2018-06-18T12:35:53.751Z,5.00
2018-06-18T12:36:53.754Z,5.30
2018-06-18T12:37:53.796Z,5.40
2018-06-18T12:38:53.884Z,5.30
2018-06-18T12:39:53.823Z,5.90
2018-06-18T12:40:53.813Z,5.40
2018-06-18T12:41:53.829Z,5.50
2018-06-18T12:42:54.446Z,5.30
2018-06-18T12:43:53.980Z,6.30
2018-06-18T12:44:53.871Z,5.80
2018-06-18T12:45:53.914Z,5.90
2018-06-18T12:46:53.914Z,5.10
2018-06-18T12:47:54.055Z,5.00
2018-06-18T12:48:54.076Z,4.00
2018-06-18T12:49:53.956Z,3.70
2018-06-18T12:50:53.965Z,3.70
2018-06-18T12:51:53.996Z,4.00
2018-06-18T12:52:54.013Z,3.90
2018-06-18T12:53:54.150Z,4.40
2018-06-18T12:54:54.014Z,4.10
2018-06-18T12:55:54.055Z,4.10
2018-06-18T12:56:54.244Z,3.40
2018-06-18T12:57:54.259Z,3.30
2018-06-18T12:58:54.240Z,3.60
2018-06-18T12:59:54.117Z,3.70
2018-06-18T13:00:54.103Z,3.20
2018-06-18T13:01:54.141Z,3.30
2018-06-18T13:02:54.154Z,3.50
2018-06-18T13:03:54.322Z,3.10
2018-06-18T13:04:54.362Z,3.60